Time;durP1;ratioP1;P1;durP2;ratioP2;P2;SDS_P1;SDS_P2;PMS_P1;PMS_P2;Temp;Humidity;BMP_temperature;BMP_pressure;BME280_temperature;BME280_humidity;BME280_pressure;Samples;Min_cycle;Max_cycle;Signal;HPM_P1;HPM_P2
2023/03/05 00:00:22;;;;;;;;;;;;;;;17.23;56.75;98458.25;2065438;28;20676;-57
2023/03/05 00:01:26;;;;;;;;;;;;;;;17.22;56.57;98460.09;2068463;28;20006;-57
2023/03/05 00:02:26;;;;;;;;;;;;;;;17.24;56.75;98465.25;2059825;28;20366;-57
2023/03/05 00:03:28;;;;;;;;;;;;;;;17.25;56.66;98458.88;2058312;28;19933;-57
2023/03/05 00:04:28;;;;;;;;;;;;;;;17.24;56.57;98454.53;2057250;28;19933;-57
2023/03/05 00:05:29;;;;;;;;;;;;;;;17.23;56.60;98455.56;2057820;28;19980;-56
2023/03/05 00:06:31;;;;;;;;;;;;;;;17.23;56.76;98455.56;2064282;28;20399;-57
2023/03/05 00:07:32;;;;;;;;;;;;;;;17.24;56.61;98458.03;2059872;28;20540;-57
2023/03/05 00:08:33;;;;;;;;;;;;;;;17.24;56.65;98458.03;2059513;28;19933;-57
2023/03/05 00:09:35;;;;;;;;;;;;;;;17.22;56.79;98453.88;2062230;28;20007;-55
2023/03/05 00:10:35;;;;;;;;;;;;;;;17.20;56.70;98457.59;2056779;28;19933;-56
2023/03/05 00:11:37;;;;;;;;;;;;;;;17.22;56.71;98456.56;2060476;28;19944;-56
2023/03/05 00:12:37;;;;;;;;;;;;;;;17.21;56.73;98458.44;2060983;28;19933;-55
2023/03/05 00:13:39;;;;;;;;;;;;;;;17.25;56.55;98457.03;2062682;28;19933;-56
2023/03/05 00:14:39;;;;;;;;;;;;;;;17.26;56.72;98449.81;2058169;28;20028;-57
2023/03/05 00:15:41;;;;;;;;;;;;;;;17.26;56.52;98455.97;2060080;28;19933;-57
2023/03/05 00:16:43;;;;;;;;;;;;;;;17.25;56.65;98451.66;2066625;28;20014;-57
2023/03/05 00:17:45;;;;;;;;;;;;;;;17.25;56.50;98450.84;2061982;28;19990;-55
2023/03/05 00:18:45;;;;;;;;;;;;;;;17.23;56.50;98442.97;2066004;28;20399;-59
2023/03/05 00:19:47;;;;;;;;;;;;;;;17.23;56.58;98458.25;2059094;28;19933;-59
2023/03/05 00:20:48;;;;;;;;;;;;;;;17.24;56.54;98458.03;2057887;28;19936;-54
2023/03/05 00:21:49;;;;;;;;;;;;;;;17.24;56.42;98457.22;2064302;28;19932;-56
2023/03/05 00:22:49;;;;;;;;;;;;;;;17.25;56.31;98458.88;2062593;28;19988;-59
2023/03/05 00:23:51;;;;;;;;;;;;;;;17.25;56.30;98459.69;2058419;28;19983;-54
2023/03/05 00:24:52;;;;;;;;;;;;;;;17.24;56.43;98459.88;2063848;28;20265;-57
2023/03/05 00:25:53;;;;;;;;;;;;;;;17.24;56.47;98457.22;2060172;28;19979;-56
2023/03/05 00:26:54;;;;;;;;;;;;;;;17.21;56.49;98455.75;2059520;28;20973;-57
2023/03/05 00:27:56;;;;;;;;;;;;;;;17.22;56.48;98462.78;2060876;28;19933;-55
2023/03/05 00:28:57;;;;;;;;;;;;;;;17.24;56.46;98462.56;2060155;28;19928;-57
2023/03/05 00:29:58;;;;;;;;;;;;;;;17.22;56.49;98464.59;2060528;28;20012;-57
2023/03/05 00:31:00;;;;;;;;;;;;;;;17.20;56.50;98462.16;2061621;28;19986;-55
2023/03/05 00:32:03;;;;;;;;;;;;;;;17.19;56.36;98461.31;2064464;28;19929;-56
2023/03/05 00:33:03;;;;;;;;;;;;;;;17.18;56.55;98458.81;2062611;28;20043;-55
2023/03/05 00:34:06;;;;;;;;;;;;;;;17.16;56.60;98464.41;2060259;28;19933;-57
2023/03/05 00:35:07;;;;;;;;;;;;;;;17.15;56.62;98461.91;2060385;28;19929;-57
2023/03/05 00:36:09;;;;;;;;;;;;;;;17.16;56.53;98461.72;2061523;28;20024;-57
2023/03/05 00:37:09;;;;;;;;;;;;;;;17.16;56.67;98460.88;2066128;28;20382;-56
2023/03/05 00:38:11;;;;;;;;;;;;;;;17.16;56.61;98461.72;2068910;28;19933;-58
2023/03/05 00:39:13;;;;;;;;;;;;;;;17.14;56.58;98463.75;2066415;28;19928;-57
2023/03/05 00:40:14;;;;;;;;;;;;;;;17.14;56.61;98463.75;2063428;28;20322;-58
2023/03/05 00:41:15;;;;;;;;;;;;;;;17.16;56.46;98467.09;2061376;28;20432;-56
2023/03/05 00:42:16;;;;;;;;;;;;;;;17.16;56.37;98463.56;2065322;28;20006;-58
2023/03/05 00:43:17;;;;;;;;;;;;;;;17.13;56.53;98462.13;2065883;28;19940;-56
2023/03/05 00:44:18;;;;;;;;;;;;;;;17.12;56.65;98463.13;2065454;28;20048;-58
2023/03/05 00:45:18;;;;;;;;;;;;;;;17.10;56.65;98465.16;2071565;28;20422;-58
2023/03/05 00:46:20;;;;;;;;;;;;;;;17.11;56.51;98461.47;2075541;28;19929;-57
2023/03/05 00:47:22;;;;;;;;;;;;;;;17.11;56.56;98457.97;2075888;28;19932;-58
2023/03/05 00:48:24;;;;;;;;;;;;;;;17.10;56.46;98457.13;2075281;28;19929;-57
2023/03/05 00:49:24;;;;;;;;;;;;;;;17.12;56.57;98457.78;2074951;28;19933;-58
2023/03/05 00:50:26;;;;;;;;;;;;;;;17.11;56.51;98458.81;2075287;28;20383;-57
2023/03/05 00:51:27;;;;;;;;;;;;;;;17.11;56.34;98458.81;2075657;28;20672;-57
2023/03/05 00:52:28;;;;;;;;;;;;;;;17.10;56.40;98459.81;2075501;28;19929;-59
2023/03/05 00:53:29;;;;;;;;;;;;;;;17.11;56.35;98453.44;2075457;28;19925;-58
2023/03/05 00:54:30;;;;;;;;;;;;;;;17.09;56.42;98450.13;2075013;28;19933;-65
2023/03/05 00:55:31;;;;;;;;;;;;;;;17.08;56.52;98453.84;2075475;28;19929;-57
2023/03/05 00:56:32;;;;;;;;;;;;;;;17.07;56.52;98452.16;2075506;28;19979;-57
2023/03/05 00:57:33;;;;;;;;;;;;;;;17.07;56.48;98454.84;2072262;28;19975;-58
2023/03/05 00:58:34;;;;;;;;;;;;;;;17.08;56.42;98447.66;2075685;28;19933;-58
2023/03/05 00:59:35;;;;;;;;;;;;;;;17.08;56.33;98450.34;2074953;28;19998;-58
2023/03/05 01:00:37;;;;;;;;;;;;;;;17.06;56.52;98452.38;2074978;28;19925;-56
2023/03/05 01:01:37;;;;;;;;;;;;;;;17.06;56.30;98449.72;2074458;28;19929;-59
2023/03/05 01:02:40;;;;;;;;;;;;;;;17.06;56.55;98455.06;2075456;28;19925;-58
2023/03/05 01:03:41;;;;;;;;;;;;;;;17.07;56.49;98457.53;2075798;28;19929;-59
2023/03/05 01:04:45;;;;;;;;;;;;;;;17.04;56.58;98447.22;2074885;28;19987;-57
2023/03/05 01:05:46;;;;;;;;;;;;;;;17.03;56.65;98445.56;2074725;28;19925;-58
2023/03/05 01:06:47;;;;;;;;;;;;;;;17.04;56.59;98443.72;2075893;28;20020;-59
2023/03/05 01:07:50;;;;;;;;;;;;;;;17.05;56.49;98443.53;2074904;28;19970;-56
2023/03/05 01:08:52;;;;;;;;;;;;;;;17.04;56.52;98449.06;2075661;28;19963;-57
2023/03/05 01:09:52;;;;;;;;;;;;;;;17.02;56.54;98443.94;2075111;28;19929;-58
2023/03/05 01:10:54;;;;;;;;;;;;;;;17.02;56.62;98438.56;2074009;28;19929;-57
2023/03/05 01:11:55;;;;;;;;;;;;;;;17.01;56.49;98436.88;2074872;28;19929;-57
2023/03/05 01:12:56;;;;;;;;;;;;;;;17.02;56.57;98437.72;2075659;28;19929;-56
2023/03/05 01:13:57;;;;;;;;;;;;;;;17.00;56.53;98437.09;2075243;28;19925;-55
2023/03/05 01:14:58;;;;;;;;;;;;;;;16.96;56.61;98432.13;2072883;28;19933;-57
2023/03/05 01:15:59;;;;;;;;;;;;;;;16.99;56.58;98438.94;2070878;28;19982;-58
2023/03/05 01:17:00;;;;;;;;;;;;;;;16.98;56.55;98437.28;2065912;28;19988;-58
2023/03/05 01:18:02;;;;;;;;;;;;;;;16.97;56.64;98432.97;2062101;28;19935;-54
2023/03/05 01:19:04;;;;;;;;;;;;;;;16.97;56.46;98432.97;2064779;28;19933;-56
2023/03/05 01:20:05;;;;;;;;;;;;;;;16.96;56.54;98428.63;2072858;28;19995;-59
2023/03/05 01:21:07;;;;;;;;;;;;;;;16.95;56.47;98432.34;2074300;28;19929;-57
2023/03/05 01:22:07;;;;;;;;;;;;;;;16.95;56.49;98426.97;2061770;28;19925;-57
2023/03/05 01:23:09;;;;;;;;;;;;;;;16.94;56.52;98428.00;2065035;28;19986;-57
2023/03/05 01:24:09;;;;;;;;;;;;;;;16.92;56.62;98428.19;2069175;28;19925;-57
2023/03/05 01:25:12;;;;;;;;;;;;;;;16.92;56.58;98422.84;2064763;28;19971;-57
2023/03/05 01:26:12;;;;;;;;;;;;;;;16.94;56.55;98422.66;2066091;28;20006;-57
2023/03/05 01:27:14;;;;;;;;;;;;;;;16.92;56.54;98424.69;2067126;28;22214;-58
2023/03/05 01:28:14;;;;;;;;;;;;;;;16.94;56.60;98419.97;2066431;28;21157;-56
2023/03/05 01:29:16;;;;;;;;;;;;;;;16.91;56.59;98414.97;2064717;28;19959;-58
2023/03/05 01:30:16;;;;;;;;;;;;;;;16.92;56.51;98422.00;2064539;28;20456;-58
2023/03/05 01:31:18;;;;;;;;;;;;;;;16.91;56.56;98417.66;2067766;28;19983;-56
2023/03/05 01:32:18;;;;;;;;;;;;;;;16.88;56.63;98418.06;2064819;28;20413;-56
2023/03/05 01:33:21;;;;;;;;;;;;;;;16.87;56.57;98419.91;2066560;28;19933;-56
2023/03/05 01:34:21;;;;;;;;;;;;;;;16.87;56.56;98409.19;2065672;28;19937;-57
2023/03/05 01:35:24;;;;;;;;;;;;;;;16.87;56.58;98411.88;2064876;28;20338;-57
2023/03/05 01:36:26;;;;;;;;;;;;;;;16.85;56.57;98411.25;2063870;28;21141;-56
2023/03/05 01:37:27;;;;;;;;;;;;;;;16.85;56.57;98415.78;2064712;28;19945;-56
2023/03/05 01:38:28;;;;;;;;;;;;;;;16.88;56.41;98410.03;2065170;28;19975;-58
2023/03/05 01:39:29;;;;;;;;;;;;;;;16.88;56.48;98410.03;2068824;28;20002;-54
2023/03/05 01:40:31;;;;;;;;;;;;;;;16.84;56.58;98409.59;2066637;28;19933;-65
2023/03/05 01:41:32;;;;;;;;;;;;;;;16.83;56.53;98412.50;2062695;28;20256;-58
2023/03/05 01:42:34;;;;;;;;;;;;;;;16.84;56.61;98406.09;2065748;28;20008;-57
2023/03/05 01:43:34;;;;;;;;;;;;;;;16.80;56.73;98411.03;2064584;28;19986;-57
2023/03/05 01:44:36;;;;;;;;;;;;;;;16.80;56.64;98405.69;2064923;28;20344;-56
2023/03/05 01:45:37;;;;;;;;;;;;;;;16.79;56.73;98405.84;2061368;28;20022;-57
2023/03/05 01:46:38;;;;;;;;;;;;;;;16.79;56.73;98408.53;2066170;28;20124;-56
2023/03/05 01:47:39;;;;;;;;;;;;;;;16.79;56.74;98403.19;2063714;28;20004;-57
2023/03/05 01:48:41;;;;;;;;;;;;;;;16.79;56.62;98404.00;2064916;28;20027;-56
2023/03/05 01:49:43;;;;;;;;;;;;;;;16.78;56.59;98406.91;2066698;28;19933;-56
2023/03/05 01:50:43;;;;;;;;;;;;;;;16.77;56.77;98402.53;2065063;28;19929;-57
2023/03/05 01:51:48;;;;;;;;;;;;;;;16.78;56.75;98401.53;2061695;28;19929;-55
2023/03/05 01:52:52;;;;;;;;;;;;;;;16.77;56.48;98397.19;2065406;28;19933;-58
2023/03/05 01:53:54;;;;;;;;;;;;;;;16.77;56.71;98402.53;2065261;28;19941;-58
2023/03/05 01:54:57;;;;;;;;;;;;;;;16.75;56.68;98400.88;2067208;28;20020;-58
2023/03/05 01:55:57;;;;;;;;;;;;;;;16.73;56.85;98396.72;2063193;28;20390;-59
2023/03/05 01:57:00;;;;;;;;;;;;;;;16.73;56.80;98386.84;2056720;28;19940;-56
2023/03/05 01:58:02;;;;;;;;;;;;;;;16.73;56.79;98394.88;2063256;28;19925;-58
2023/03/05 01:59:03;;;;;;;;;;;;;;;16.72;56.79;98392.41;2064332;28;19971;-57
2023/03/05 02:00:06;;;;;;;;;;;;;;;16.72;56.79;98398.59;2064058;28;19932;-57
2023/03/05 02:01:08;;;;;;;;;;;;;;;16.72;56.70;98395.09;2063513;28;19952;-57
2023/03/05 02:02:08;;;;;;;;;;;;;;;16.70;56.68;98387.22;2065699;28;19959;-57
2023/03/05 02:03:12;;;;;;;;;;;;;;;16.71;56.77;98386.19;2062038;28;19933;-56
2023/03/05 02:04:15;;;;;;;;;;;;;;;16.69;56.50;98387.44;2064140;28;19940;-57
2023/03/05 02:05:19;;;;;;;;;;;;;;;16.70;56.73;98387.22;2065619;28;20879;-58
2023/03/05 02:06:20;;;;;;;;;;;;;;;16.71;56.65;98388.06;2064060;28;19933;-54
2023/03/05 02:07:21;;;;;;;;;;;;;;;16.69;56.72;98382.09;2061348;28;19961;-56
2023/03/05 02:08:22;;;;;;;;;;;;;;;16.69;56.66;98388.28;2067426;28;19926;-59
2023/03/05 02:09:23;;;;;;;;;;;;;;;16.68;56.49;98389.28;2063388;28;19979;-54
2023/03/05 02:10:25;;;;;;;;;;;;;;;16.67;56.46;98384.13;2069056;28;20561;-59
2023/03/05 02:11:26;;;;;;;;;;;;;;;16.67;56.60;98374.25;2065878;28;19933;-59
2023/03/05 02:12:28;;;;;;;;;;;;;;;16.65;56.78;98380.81;2067253;28;20362;-57
2023/03/05 02:13:31;;;;;;;;;;;;;;;16.63;56.61;98382.84;2058924;28;19956;-54
2023/03/05 02:14:33;;;;;;;;;;;;;;;16.64;56.80;98380.00;2065682;28;19936;-57
2023/03/05 02:15:34;;;;;;;;;;;;;;;16.62;56.67;98384.72;2062091;28;19933;-57
2023/03/05 02:16:36;;;;;;;;;;;;;;;16.63;56.82;98386.38;2066235;28;19940;-57
2023/03/05 02:17:37;;;;;;;;;;;;;;;16.60;56.62;98381.41;2064263;28;19925;-57
2023/03/05 02:18:38;;;;;;;;;;;;;;;16.61;56.80;98382.25;2065287;28;20345;-58
2023/03/05 02:19:47;;;;;;;;;;;;;;;16.61;56.64;98382.25;2062114;28;19933;-57
2023/03/05 02:20:50;;;;;;;;;;;;;;;16.60;56.76;98381.41;2062781;28;19929;-57
2023/03/05 02:21:52;;;;;;;;;;;;;;;16.58;56.75;98383.47;2064700;28;19932;-59
2023/03/05 02:22:54;;;;;;;;;;;;;;;16.58;56.69;98378.13;2065135;28;19929;-57
2023/03/05 02:23:54;;;;;;;;;;;;;;;16.54;56.77;98377.66;2063642;28;19935;-54
2023/03/05 02:24:56;;;;;;;;;;;;;;;16.54;56.73;98376.84;2063727;28;20005;-56
2023/03/05 02:25:56;;;;;;;;;;;;;;;16.56;56.86;98376.66;2069021;28;20625;-59
2023/03/05 02:26:58;;;;;;;;;;;;;;;16.56;56.74;98368.63;2066922;28;19929;-58
2023/03/05 02:28:01;;;;;;;;;;;;;;;16.57;56.78;98375.63;2063749;28;20338;-56
2023/03/05 02:29:02;;;;;;;;;;;;;;;16.51;56.83;98371.88;2066119;28;19929;-57
2023/03/05 02:30:03;;;;;;;;;;;;;;;16.52;56.89;98363.66;2065779;28;20440;-53
2023/03/05 02:31:08;;;;;;;;;;;;;;;16.52;56.81;98371.69;2065495;28;19928;-59
2023/03/05 02:32:09;;;;;;;;;;;;;;;16.52;56.87;98363.66;2066259;28;22760;-55
2023/03/05 02:33:11;;;;;;;;;;;;;;;16.50;56.77;98365.69;2065310;28;19928;-58
2023/03/05 02:34:11;;;;;;;;;;;;;;;16.49;56.87;98365.88;2064019;28;19929;-51
2023/03/05 02:35:13;;;;;;;;;;;;;;;16.46;56.81;98368.97;2067294;28;19936;-60
2023/03/05 02:36:13;;;;;;;;;;;;;;;16.48;56.81;98366.91;2066002;28;19933;-57
2023/03/05 02:37:16;;;;;;;;;;;;;;;16.50;56.84;98367.56;2066478;28;19937;-55
2023/03/05 02:38:18;;;;;;;;;;;;;;;16.51;56.79;98367.34;2061670;28;19929;-59
2023/03/05 02:39:19;;;;;;;;;;;;;;;16.49;56.79;98365.88;2062521;28;20023;-61
2023/03/05 02:40:20;;;;;;;;;;;;;;;16.47;56.75;98366.09;2065645;28;19933;-57
2023/03/05 02:41:22;;;;;;;;;;;;;;;16.46;56.87;98368.97;2067448;28;19956;-55
2023/03/05 02:42:22;;;;;;;;;;;;;;;16.44;56.84;98365.66;2067934;28;19929;-50
2023/03/05 02:43:24;;;;;;;;;;;;;;;16.43;56.82;98372.03;2064208;28;19925;-57
2023/03/05 02:44:24;;;;;;;;;;;;;;;16.41;56.76;98372.25;2064284;28;20399;-57
2023/03/05 02:45:25;;;;;;;;;;;;;;;16.41;56.82;98372.25;2062814;28;19933;-59
2023/03/05 02:46:26;;;;;;;;;;;;;;;16.42;56.90;98373.88;2071987;28;22443;-58
2023/03/05 02:47:27;;;;;;;;;;;;;;;16.39;56.92;98373.44;2062920;28;19933;-60
2023/03/05 02:48:28;;;;;;;;;;;;;;;16.38;56.81;98378.00;2075144;28;20888;-50
2023/03/05 02:49:29;;;;;;;;;;;;;;;16.38;56.86;98374.47;2075064;28;19987;-49
2023/03/05 02:50:30;;;;;;;;;;;;;;;16.38;56.89;98377.13;2074831;28;19929;-56
2023/03/05 02:51:32;;;;;;;;;;;;;;;16.38;56.97;98379.81;2073642;28;20241;-57
2023/03/05 02:52:34;;;;;;;;;;;;;;;16.37;56.98;98378.16;2074420;28;19936;-53
2023/03/05 02:53:35;;;;;;;;;;;;;;;16.36;57.00;98376.53;2071796;28;19926;-54
2023/03/05 02:54:35;;;;;;;;;;;;;;;16.37;56.92;98378.16;2073794;28;20425;-53
2023/03/05 02:55:37;;;;;;;;;;;;;;;16.34;56.98;98375.88;2073967;28;19983;-52
2023/03/05 02:56:38;;;;;;;;;;;;;;;16.33;57.09;98379.59;2073063;28;20901;-55
2023/03/05 02:57:39;;;;;;;;;;;;;;;16.32;56.98;98381.41;2072845;28;19964;-54
2023/03/05 02:58:40;;;;;;;;;;;;;;;16.34;56.92;98383.91;2074903;28;19983;-54
2023/03/05 02:59:42;;;;;;;;;;;;;;;16.31;56.96;98374.41;2073482;28;19932;-58
2023/03/05 03:00:42;;;;;;;;;;;;;;;16.31;57.07;98374.41;2074191;28;19933;-57
2023/03/05 03:01:44;;;;;;;;;;;;;;;16.31;57.03;98374.41;2073621;28;19991;-56
2023/03/05 03:02:44;;;;;;;;;;;;;;;16.30;56.86;98380.81;2073769;28;20492;-55
2023/03/05 03:03:46;;;;;;;;;;;;;;;16.28;57.06;98372.13;2072807;28;19941;-53
2023/03/05 03:04:46;;;;;;;;;;;;;;;16.28;57.01;98370.28;2072621;28;19979;-54
2023/03/05 03:05:47;;;;;;;;;;;;;;;16.30;57.00;98370.09;2073808;28;19933;-58
2023/03/05 03:06:48;;;;;;;;;;;;;;;16.29;56.99;98368.44;2074658;28;19929;-57
2023/03/05 03:07:51;;;;;;;;;;;;;;;16.26;57.13;98369.66;2074185;28;19975;-59
2023/03/05 03:08:51;;;;;;;;;;;;;;;16.25;57.09;98370.69;2075517;28;20502;-57
2023/03/05 03:09:53;;;;;;;;;;;;;;;16.27;57.13;98371.31;2074020;28;19929;-60
2023/03/05 03:10:55;;;;;;;;;;;;;;;16.28;56.97;98375.63;2073639;28;20816;-58
2023/03/05 03:11:56;;;;;;;;;;;;;;;16.28;56.92;98372.13;2074031;28;19939;-52
2023/03/05 03:12:57;;;;;;;;;;;;;;;16.25;57.01;98373.34;2071281;28;19933;-56
2023/03/05 03:13:59;;;;;;;;;;;;;;;16.25;56.99;98375.22;2074948;28;19932;-56
2023/03/05 03:14:59;;;;;;;;;;;;;;;16.24;57.02;98370.84;2074264;28;19929;-59
2023/03/05 03:16:01;;;;;;;;;;;;;;;16.23;57.01;98372.72;2074111;28;19929;-56
2023/03/05 03:17:02;;;;;;;;;;;;;;;16.20;57.09;98374.97;2072812;28;19983;-61
2023/03/05 03:18:03;;;;;;;;;;;;;;;16.21;57.15;98372.06;2073070;28;20018;-58
2023/03/05 03:19:04;;;;;;;;;;;;;;;16.21;57.08;98376.59;2074249;28;20933;-56
2023/03/05 03:20:07;;;;;;;;;;;;;;;16.22;57.05;98375.59;2068977;28;19944;-56
2023/03/05 03:21:08;;;;;;;;;;;;;;;16.19;57.16;98378.66;2063989;28;19932;-59
2023/03/05 03:22:10;;;;;;;;;;;;;;;16.19;57.26;98367.97;2069172;28;19933;-57
2023/03/05 03:23:12;;;;;;;;;;;;;;;16.21;57.15;98374.75;2072142;28;20391;-62
2023/03/05 03:24:13;;;;;;;;;;;;;;;16.20;57.15;98370.44;2069535;28;19929;-60
2023/03/05 03:25:14;;;;;;;;;;;;;;;16.18;57.20;98377.81;2063956;28;19933;-57
2023/03/05 03:26:16;;;;;;;;;;;;;;;16.19;57.11;98374.13;2060846;28;19988;-59
2023/03/05 03:27:17;;;;;;;;;;;;;;;16.16;57.18;98374.53;2062057;28;19933;-58
2023/03/05 03:28:18;;;;;;;;;;;;;;;16.18;56.97;98383.16;2068075;28;20372;-59
2023/03/05 03:29:20;;;;;;;;;;;;;;;16.15;57.06;98372.84;2063427;28;19959;-57
2023/03/05 03:30:20;;;;;;;;;;;;;;;16.15;57.10;98367.50;2061601;28;19979;-57
2023/03/05 03:31:21;;;;;;;;;;;;;;;16.13;57.22;98377.59;2062116;28;19956;-55
2023/03/05 03:32:22;;;;;;;;;;;;;;;16.12;57.15;98378.59;2063994;28;20342;-54
2023/03/05 03:33:23;;;;;;;;;;;;;;;16.11;57.14;98374.28;2060187;28;19934;-54
2023/03/05 03:34:24;;;;;;;;;;;;;;;16.11;57.12;98376.13;2066074;28;19936;-56
2023/03/05 03:35:26;;;;;;;;;;;;;;;16.10;57.27;98369.94;2063386;28;20016;-56
2023/03/05 03:36:26;;;;;;;;;;;;;;;16.08;57.33;98378.16;2060618;28;19930;-56
2023/03/05 03:37:28;;;;;;;;;;;;;;;16.08;57.22;98380.03;2060323;28;20019;-56
2023/03/05 03:38:30;;;;;;;;;;;;;;;16.08;57.27;98383.50;2070353;28;20020;-55
2023/03/05 03:39:32;;;;;;;;;;;;;;;16.08;57.20;98388.03;2061615;28;19967;-56
2023/03/05 03:40:34;;;;;;;;;;;;;;;16.08;57.21;98377.34;2061799;28;23252;-56
2023/03/05 03:41:36;;;;;;;;;;;;;;;16.08;57.28;98380.03;2065302;28;20513;-57
2023/03/05 03:42:36;;;;;;;;;;;;;;;16.07;57.22;98384.53;2066734;28;19925;-55
2023/03/05 03:43:38;;;;;;;;;;;;;;;16.07;57.27;98383.69;2065980;28;20402;-56
2023/03/05 03:44:38;;;;;;;;;;;;;;;16.06;57.23;98384.72;2062708;28;19932;-56
2023/03/05 03:45:40;;;;;;;;;;;;;;;16.06;57.37;98387.41;2062373;28;19933;-55
2023/03/05 03:46:43;;;;;;;;;;;;;;;16.06;57.19;98384.72;2062812;28;20214;-57
2023/03/05 03:47:44;;;;;;;;;;;;;;;16.07;57.07;98389.03;2062211;28;20709;-55
2023/03/05 03:48:48;;;;;;;;;;;;;;;16.05;57.29;98391.09;2063648;28;19933;-55
2023/03/05 03:49:53;;;;;;;;;;;;;;;16.07;57.16;98383.69;2062046;28;19987;-56
2023/03/05 03:50:53;;;;;;;;;;;;;;;16.06;57.20;98384.72;2063914;28;20353;-56
2023/03/05 03:51:55;;;;;;;;;;;;;;;16.04;57.17;98384.09;2063697;28;19982;-57
2023/03/05 03:52:55;;;;;;;;;;;;;;;16.04;57.18;98378.72;2062252;28;20449;-53
2023/03/05 03:53:58;;;;;;;;;;;;;;;16.06;57.30;98382.06;2064109;28;19932;-55
2023/03/05 03:55:00;;;;;;;;;;;;;;;16.04;57.15;98384.91;2063083;28;19992;-55
2023/03/05 03:56:02;;;;;;;;;;;;;;;16.03;57.31;98385.13;2063326;28;19936;-55
2023/03/05 03:57:03;;;;;;;;;;;;;;;16.03;57.22;98382.44;2064221;28;20006;-56
2023/03/05 03:58:04;;;;;;;;;;;;;;;16.04;57.25;98382.22;2067414;28;19972;-57
2023/03/05 03:59:05;;;;;;;;;;;;;;;16.03;57.12;98383.25;2063731;28;20781;-55
2023/03/05 04:00:07;;;;;;;;;;;;;;;16.03;57.11;98383.25;2062709;28;19937;-56
2023/03/05 04:01:07;;;;;;;;;;;;;;;16.02;57.18;98380.78;2063688;28;19929;-56
2023/03/05 04:02:09;;;;;;;;;;;;;;;16.03;57.24;98383.25;2065191;28;19983;-55
2023/03/05 04:03:09;;;;;;;;;;;;;;;16.01;57.17;98385.28;2058393;28;19941;-56
2023/03/05 04:04:12;;;;;;;;;;;;;;;16.02;57.28;98388.81;2063264;28;19933;-57
2023/03/05 04:05:12;;;;;;;;;;;;;;;16.02;57.18;98386.16;2064040;28;19929;-55
2023/03/05 04:06:14;;;;;;;;;;;;;;;16.00;57.09;98385.50;2062542;28;19933;-58
2023/03/05 04:07:15;;;;;;;;;;;;;;;15.98;57.14;98387.53;2061050;28;20265;-54
2023/03/05 04:08:16;;;;;;;;;;;;;;;15.97;57.24;98385.88;2061821;28;19984;-55
2023/03/05 04:09:18;;;;;;;;;;;;;;;15.98;57.10;98383.00;2064110;28;19986;-56
2023/03/05 04:10:20;;;;;;;;;;;;;;;15.96;57.25;98387.72;2062678;28;19937;-56
2023/03/05 04:11:20;;;;;;;;;;;;;;;15.97;57.37;98386.72;2062373;28;19933;-55
2023/03/05 04:12:21;;;;;;;;;;;;;;;15.99;57.41;98389.19;2062487;28;21997;-52
2023/03/05 04:13:22;;;;;;;;;;;;;;;15.96;57.24;98385.03;2068184;28;19929;-53
2023/03/05 04:14:25;;;;;;;;;;;;;;;15.93;57.36;98379.25;2061395;28;19987;-52
2023/03/05 04:15:26;;;;;;;;;;;;;;;15.95;57.25;98382.56;2066141;28;20903;-56
2023/03/05 04:16:27;;;;;;;;;;;;;;;15.95;57.24;98377.22;2065059;28;19931;-56
2023/03/05 04:17:27;;;;;;;;;;;;;;;15.94;57.28;98383.59;2065849;28;19929;-55
2023/03/05 04:18:29;;;;;;;;;;;;;;;15.92;57.33;98377.63;2066840;28;21375;-56
2023/03/05 04:19:29;;;;;;;;;;;;;;;15.92;57.27;98378.44;2066656;28;19925;-57
2023/03/05 04:20:31;;;;;;;;;;;;;;;15.92;57.43;98382.97;2066837;28;19940;-55
2023/03/05 04:21:31;;;;;;;;;;;;;;;15.91;57.20;98376.78;2062027;28;19970;-55
2023/03/05 04:22:33;;;;;;;;;;;;;;;15.92;57.16;98377.63;2065463;28;19933;-56
2023/03/05 04:23:33;;;;;;;;;;;;;;;15.92;57.11;98377.63;2066002;28;19986;-55
2023/03/05 04:24:37;;;;;;;;;;;;;;;15.91;57.31;98375.94;2064544;28;20004;-54
2023/03/05 04:25:37;;;;;;;;;;;;;;;15.90;57.29;98371.63;2065340;28;19929;-55
2023/03/05 04:26:39;;;;;;;;;;;;;;;15.92;57.20;98374.94;2066754;28;19925;-55
2023/03/05 04:27:39;;;;;;;;;;;;;;;15.89;57.19;98369.97;2064140;28;19933;-55
2023/03/05 04:28:40;;;;;;;;;;;;;;;15.90;57.17;98372.44;2069934;28;19929;-53
2023/03/05 04:29:41;;;;;;;;;;;;;;;15.91;57.19;98374.13;2066093;28;19929;-55
2023/03/05 04:30:42;;;;;;;;;;;;;;;15.88;57.21;98371.81;2064882;28;19999;-54
2023/03/05 04:31:43;;;;;;;;;;;;;;;15.88;57.22;98370.97;2065196;28;19979;-57
2023/03/05 04:32:44;;;;;;;;;;;;;;;15.86;57.18;98377.34;2065844;28;20323;-58
2023/03/05 04:33:45;;;;;;;;;;;;;;;15.85;57.33;98373.03;2064580;28;20722;-57
2023/03/05 04:34:46;;;;;;;;;;;;;;;15.87;57.44;98372.81;2065909;28;19941;-56
2023/03/05 04:35:47;;;;;;;;;;;;;;;15.88;57.42;98366.47;2062686;28;19983;-56
2023/03/05 04:36:48;;;;;;;;;;;;;;;15.89;57.20;98378.00;2065081;28;19937;-56
2023/03/05 04:37:49;;;;;;;;;;;;;;;15.87;57.37;98378.19;2068566;28;19991;-52
2023/03/05 04:38:50;;;;;;;;;;;;;;;15.88;57.51;98376.31;2063903;28;19937;-59
2023/03/05 04:39:53;;;;;;;;;;;;;;;15.89;57.22;98373.47;2062165;28;22003;-57
2023/03/05 04:40:53;;;;;;;;;;;;;;;15.87;57.26;98378.19;2066259;28;19929;-57
2023/03/05 04:41:55;;;;;;;;;;;;;;;15.84;57.26;98373.22;2063572;28;19976;-55
2023/03/05 04:42:55;;;;;;;;;;;;;;;15.84;57.41;98367.88;2066233;28;19937;-57
2023/03/05 04:43:57;;;;;;;;;;;;;;;15.83;57.37;98364.38;2067001;28;19929;-56
2023/03/05 04:44:57;;;;;;;;;;;;;;;15.82;57.38;98362.72;2065192;28;20441;-55
2023/03/05 04:45:58;;;;;;;;;;;;;;;15.83;57.28;98364.38;2071659;28;19933;-56
2023/03/05 04:46:59;;;;;;;;;;;;;;;15.85;57.30;98366.84;2074371;28;20475;-58
2023/03/05 04:48:00;;;;;;;;;;;;;;;15.83;57.21;98364.38;2074366;28;19980;-59
2023/03/05 04:49:01;;;;;;;;;;;;;;;15.82;57.21;98367.22;2075122;28;19983;-59
2023/03/05 04:50:03;;;;;;;;;;;;;;;15.80;57.31;98370.09;2075331;28;19983;-58
2023/03/05 04:51:04;;;;;;;;;;;;;;;15.81;57.35;98365.56;2074569;28;19925;-53
2023/03/05 04:52:06;;;;;;;;;;;;;;;15.81;57.39;98366.41;2075553;28;19963;-58
2023/03/05 04:53:06;;;;;;;;;;;;;;;15.78;57.33;98360.63;2075664;28;19929;-54
2023/03/05 04:54:07;;;;;;;;;;;;;;;15.78;57.43;98368.63;2074346;28;19971;-53
2023/03/05 04:55:10;;;;;;;;;;;;;;;15.80;57.42;98366.59;2072535;28;20093;-55
2023/03/05 04:56:12;;;;;;;;;;;;;;;15.81;57.31;98368.25;2074601;28;19932;-58
2023/03/05 04:57:12;;;;;;;;;;;;;;;15.78;57.20;98372.13;2075327;28;19990;-55
2023/03/05 04:58:14;;;;;;;;;;;;;;;15.80;57.38;98366.59;2074101;28;19925;-55
2023/03/05 04:59:14;;;;;;;;;;;;;;;15.78;57.27;98360.63;2075121;28;20787;-57
2023/03/05 05:00:16;;;;;;;;;;;;;;;15.76;57.27;98365.31;2074516;28;19979;-57
2023/03/05 05:01:17;;;;;;;;;;;;;;;15.77;57.35;98365.13;2074670;28;19933;-56
2023/03/05 05:02:18;;;;;;;;;;;;;;;15.78;57.42;98361.44;2075492;28;20021;-58
2023/03/05 05:03:19;;;;;;;;;;;;;;;15.79;57.23;98365.75;2072518;28;19991;-56
2023/03/05 05:04:20;;;;;;;;;;;;;;;15.80;57.31;98361.25;2074209;28;19948;-59
2023/03/05 05:05:22;;;;;;;;;;;;;;;15.77;57.20;98359.78;2074361;28;19987;-56
2023/03/05 05:06:23;;;;;;;;;;;;;;;15.77;57.24;98353.63;2075207;28;19979;-56
2023/03/05 05:07:24;;;;;;;;;;;;;;;15.76;57.36;98358.13;2071899;28;19925;-58
2023/03/05 05:08:25;;;;;;;;;;;;;;;15.77;57.14;98359.78;2074166;28;19932;-56
2023/03/05 05:09:26;;;;;;;;;;;;;;;15.77;57.44;98359.78;2072864;28;19945;-56
2023/03/05 05:10:28;;;;;;;;;;;;;;;15.77;57.32;98358.97;2075079;28;19925;-52
2023/03/05 05:11:29;;;;;;;;;;;;;;;15.74;57.41;98357.50;2070972;28;19957;-60
2023/03/05 05:12:30;;;;;;;;;;;;;;;15.73;57.38;98361.19;2069993;28;19944;-59
2023/03/05 05:13:32;;;;;;;;;;;;;;;15.74;57.28;98360.19;2071906;28;19929;-56
2023/03/05 05:14:33;;;;;;;;;;;;;;;15.74;57.23;98360.19;2074888;28;19929;-56
2023/03/05 05:15:34;;;;;;;;;;;;;;;15.75;57.39;98364.50;2071672;28;19978;-55
2023/03/05 05:16:34;;;;;;;;;;;;;;;15.74;57.39;98356.66;2074780;28;19974;-57
2023/03/05 05:17:36;;;;;;;;;;;;;;;15.73;57.18;98363.84;2070274;28;21184;-56
2023/03/05 05:18:36;;;;;;;;;;;;;;;15.74;57.33;98370.88;2065775;28;19933;-51
2023/03/05 05:19:38;;;;;;;;;;;;;;;15.74;57.10;98365.53;2067374;28;20476;-56